createdAt,value
2023-03-25T00:01:09.423Z,99924.16
2023-03-25T00:06:07.374Z,99915.72
2023-03-25T00:11:04.591Z,99921.53
2023-03-25T00:16:02.039Z,99906.38
2023-03-25T00:20:58.896Z,99919.91
2023-03-25T00:26:00.149Z,99932.22
2023-03-25T00:31:06.574Z,99920.63
2023-03-25T00:36:04.840Z,99905.53
2023-03-25T00:41:25.269Z,99908.44
2023-03-25T00:46:23.235Z,99902.81
2023-03-25T00:51:21.460Z,99908.34
2023-03-25T00:56:17.974Z,99894.09
2023-03-25T01:01:16.917Z,99904.50
2023-03-25T01:06:16.158Z,99900.84
2023-03-25T01:11:21.450Z,99893.53
2023-03-25T01:16:18.037Z,99898.19
2023-03-25T01:21:14.828Z,99896.03
2023-03-25T01:26:12.898Z,99899.88
2023-03-25T01:31:11.657Z,99869.09
2023-03-25T01:36:13.040Z,99878.50
2023-03-25T01:41:11.913Z,99857.59
2023-03-25T01:46:14.333Z,99872.56
2023-03-25T01:51:13.499Z,99872.91
2023-03-25T01:56:13.459Z,99839.59
2023-03-25T02:01:13.621Z,99868.19
2023-03-25T02:06:15.139Z,99845.78
2023-03-25T02:11:11.946Z,99846.38
2023-03-25T02:16:23.511Z,99843.50
2023-03-25T02:22:00.645Z,99846.16
2023-03-25T02:27:33.818Z,99836.22
2023-03-25T02:33:01.770Z,99841.53
2023-03-25T02:38:17.869Z,99824.53
2023-03-25T02:43:20.970Z,99815.16
2023-03-25T02:48:23.814Z,99820.47
2023-03-25T02:53:26.696Z,99828.84
2023-03-25T02:58:24.938Z,99805.69
2023-03-25T03:03:21.534Z,99823.13
2023-03-25T03:08:38.578Z,99814.09
2023-03-25T03:14:13.810Z,99811.31
2023-03-25T03:19:24.967Z,99815.63
2023-03-25T03:24:27.667Z,99808.38
2023-03-25T03:29:32.340Z,99809.25
2023-03-25T03:34:44.843Z,99815.38
2023-03-25T03:39:42.252Z,99807.53
2023-03-25T03:44:40.530Z,99806.94
2023-03-25T03:49:42.928Z,99807.19
2023-03-25T03:54:47.494Z,99802.16
2023-03-25T04:00:06.764Z,99803.59
2023-03-25T04:05:03.252Z,99803.47
2023-03-25T04:10:03.226Z,99796.25
2023-03-25T04:15:04.028Z,99806.59
2023-03-25T04:20:01.511Z,99799.03
2023-03-25T04:25:00.200Z,99808.41
2023-03-25T04:30:01.661Z,99806.25
2023-03-25T04:34:58.136Z,99808.06
2023-03-25T04:39:56.045Z,99806.00
2023-03-25T04:44:52.972Z,99834.09
2023-03-25T04:49:49.444Z,99842.31
2023-03-25T04:54:46.305Z,99822.53
2023-03-25T04:59:42.792Z,99792.00
2023-03-25T05:04:42.217Z,99801.91
2023-03-25T05:09:38.725Z,99816.16
2023-03-25T05:14:35.325Z,99815.44
2023-03-25T05:19:34.939Z,99824.59
2023-03-25T05:24:31.698Z,99813.13
2023-03-25T05:29:28.366Z,99817.84
2023-03-25T05:34:25.618Z,99824.47
2023-03-25T05:39:22.144Z,99830.03
2023-03-25T05:44:19.064Z,99816.53
2023-03-25T05:49:15.652Z,99828.72
2023-03-25T05:54:14.092Z,99840.78
2023-03-25T05:59:10.691Z,99820.63
2023-03-25T06:04:10.151Z,99841.38
2023-03-25T06:09:07.413Z,99839.06
2023-03-25T06:14:04.761Z,99843.19
2023-03-25T06:19:01.363Z,99835.47
2023-03-25T06:23:58.833Z,99852.47
2023-03-25T06:28:55.524Z,99858.75
2023-03-25T06:33:52.657Z,99864.78
2023-03-25T06:38:50.480Z,99864.53
2023-03-25T06:43:48.358Z,99862.47
2023-03-25T06:48:44.873Z,99860.66
2023-03-25T06:53:42.529Z,99861.28
2023-03-25T06:58:39.083Z,99853.19
2023-03-25T07:03:37.047Z,99867.31
2023-03-25T07:08:33.944Z,99858.63
2023-03-25T07:13:31.302Z,99855.63
2023-03-25T07:18:30.439Z,99873.25
2023-03-25T07:23:27.126Z,99869.72
2023-03-25T07:28:36.438Z,99860.19
2023-03-25T07:33:38.846Z,99854.72
2023-03-25T07:39:01.529Z,99869.47
2023-03-25T07:50:01.122Z,99845.94
2023-03-25T07:55:22.589Z,99880.63
2023-03-25T08:00:53.705Z,99848.22
2023-03-25T08:06:29.246Z,99836.69
2023-03-25T08:11:43.153Z,99845.72
2023-03-25T08:17:14.442Z,99845.97
2023-03-25T08:22:22.053Z,99864.19
2023-03-25T08:27:18.533Z,99867.63
2023-03-25T08:32:15.289Z,99874.19
2023-03-25T08:37:11.659Z,99870.38
2023-03-25T08:42:10.860Z,99859.59
2023-03-25T08:47:08.821Z,99869.72
2023-03-25T08:52:14.649Z,99866.34
2023-03-25T08:57:15.261Z,99866.09
2023-03-25T09:02:18.995Z,99867.72
2023-03-25T09:07:19.735Z,99864.72
2023-03-25T09:12:33.078Z,99879.72
2023-03-25T09:17:29.721Z,99896.03
2023-03-25T09:22:27.084Z,99891.75
2023-03-25T09:27:24.141Z,99903.06
2023-03-25T09:37:32.407Z,99899.34
2023-03-25T09:42:28.839Z,99900.19
2023-03-25T09:47:26.060Z,99899.84
2023-03-25T10:17:13.758Z,99895.00
2023-03-25T10:22:18.402Z,99886.84
2023-03-25T10:27:41.474Z,99898.34
2023-03-25T10:33:16.798Z,99894.06
2023-03-25T10:38:24.021Z,99889.25
2023-03-25T10:43:24.926Z,99883.91
2023-03-25T10:48:29.622Z,99878.41
2023-03-25T10:53:28.302Z,99864.72
2023-03-25T10:58:27.040Z,99846.06
2023-03-25T11:03:36.538Z,99848.91
2023-03-25T11:08:33.758Z,99855.38
2023-03-25T11:19:05.452Z,99877.66
2023-03-25T11:24:03.102Z,99905.13
2023-03-25T11:29:13.286Z,99925.22
2023-03-25T11:34:25.084Z,99918.50
2023-03-25T11:39:36.700Z,99900.59
2023-03-25T11:44:33.357Z,99905.91
2023-03-25T11:49:30.107Z,99902.28
2023-03-25T11:54:27.825Z,99903.06
2023-03-25T11:59:33.831Z,99902.72
2023-03-25T12:04:30.453Z,99868.78
2023-03-25T12:09:30.966Z,99886.66
2023-03-25T12:15:02.845Z,99876.47
2023-03-25T12:20:16.960Z,99872.94
2023-03-25T12:25:38.191Z,99850.19
2023-03-25T12:30:45.390Z,99859.91
2023-03-25T12:36:18.078Z,99853.25
2023-03-25T13:46:53.198Z,99858.00
2023-03-25T13:51:49.982Z,99866.69
2023-03-25T13:57:08.319Z,99860.41
2023-03-25T14:14:16.301Z,99866.34
2023-03-25T14:19:36.285Z,99867.38
2023-03-25T14:44:14.547Z,99871.28
2023-03-25T15:21:17.387Z,99862.00
2023-03-25T15:27:02.860Z,99847.69
2023-03-25T15:45:07.897Z,99804.53
2023-03-25T15:50:22.462Z,99812.25
2023-03-25T15:55:27.055Z,99796.03
2023-03-25T16:06:04.869Z,99807.97
2023-03-25T16:11:33.586Z,99812.50
2023-03-25T16:16:34.488Z,99793.78
2023-03-25T16:21:32.187Z,99820.63
2023-03-25T16:26:48.198Z,99815.44
2023-03-25T16:31:51.954Z,99820.75
2023-03-25T16:36:50.765Z,99839.94
2023-03-25T18:28:04.065Z,99815.31
2023-03-25T19:05:11.142Z,99858.59
2023-03-25T21:52:52.357Z,99979.72
2023-03-25T21:57:49.690Z,99993.84
2023-03-25T22:02:46.996Z,100001.41
2023-03-25T22:07:44.046Z,99997.22
2023-03-25T22:12:40.535Z,100004.66
2023-03-25T22:17:36.973Z,100009.56
2023-03-25T22:22:33.416Z,100016.19
2023-03-25T22:27:29.902Z,100023.72
2023-03-25T22:32:27.542Z,100023.00
2023-03-25T22:37:24.151Z,100024.91
2023-03-25T22:42:20.607Z,100031.19
2023-03-25T22:47:17.510Z,100037.22
2023-03-25T22:52:13.959Z,100039.78
2023-03-25T22:57:10.706Z,100043.16
2023-03-25T23:02:07.699Z,100049.41
2023-03-25T23:07:08.365Z,100040.56
2023-03-25T23:12:05.453Z,100071.91
2023-03-25T23:17:02.047Z,100047.78
2023-03-25T23:21:59.557Z,100053.28
2023-03-25T23:26:56.542Z,100069.31
2023-03-25T23:31:53.109Z,100072.72
2023-03-25T23:36:49.978Z,100068.34
2023-03-25T23:41:46.365Z,100093.41
2023-03-25T23:46:43.090Z,100081.50
2023-03-25T23:51:41.306Z,100084.16
2023-03-25T23:56:38.724Z,100118.88
